sensor_id;sensor_type;location;lat;lon;timestamp;temperature;humidity
32660;DHT22;19064;47.912;12.308;2024-03-02T00:01:30;5.20;99.90
32660;DHT22;19064;47.912;12.308;2024-03-02T00:03:58;5.20;99.90
32660;DHT22;19064;47.912;12.308;2024-03-02T00:06:26;5.20;99.90
32660;DHT22;19064;47.912;12.308;2024-03-02T00:08:58;5.20;99.90
32660;DHT22;19064;47.912;12.308;2024-03-02T00:11:26;5.20;99.90
32660;DHT22;19064;47.912;12.308;2024-03-02T00:13:54;5.20;99.90
32660;DHT22;19064;47.912;12.308;2024-03-02T00:16:22;5.20;99.90
32660;DHT22;19064;47.912;12.308;2024-03-02T00:18:49;5.30;99.90
32660;DHT22;19064;47.912;12.308;2024-03-02T00:21:18;5.30;99.90
32660;DHT22;19064;47.912;12.308;2024-03-02T00:23:49;5.30;99.90
32660;DHT22;19064;47.912;12.308;2024-03-02T00:26:20;5.30;99.90
32660;DHT22;19064;47.912;12.308;2024-03-02T00:28:48;5.30;99.90
32660;DHT22;19064;47.912;12.308;2024-03-02T00:31:16;5.40;99.90
32660;DHT22;19064;47.912;12.308;2024-03-02T00:33:48;5.40;99.90
32660;DHT22;19064;47.912;12.308;2024-03-02T00:36:22;5.30;99.90
32660;DHT22;19064;47.912;12.308;2024-03-02T00:38:53;5.30;99.90
32660;DHT22;19064;47.912;12.308;2024-03-02T00:41:23;5.30;99.90
32660;DHT22;19064;47.912;12.308;2024-03-02T00:43:57;5.30;99.90
32660;DHT22;19064;47.912;12.308;2024-03-02T00:46:27;5.20;99.90
32660;DHT22;19064;47.912;12.308;2024-03-02T00:48:57;5.20;99.90
32660;DHT22;19064;47.912;12.308;2024-03-02T00:51:25;5.30;99.90
32660;DHT22;19064;47.912;12.308;2024-03-02T00:53:52;5.30;99.90
32660;DHT22;19064;47.912;12.308;2024-03-02T00:56:24;5.30;99.90
32660;DHT22;19064;47.912;12.308;2024-03-02T00:58:53;5.30;99.90
32660;DHT22;19064;47.912;12.308;2024-03-02T01:01:21;5.30;99.90
32660;DHT22;19064;47.912;12.308;2024-03-02T01:03:50;5.30;99.90
32660;DHT22;19064;47.912;12.308;2024-03-02T01:06:17;5.40;99.90
32660;DHT22;19064;47.912;12.308;2024-03-02T01:08:46;5.30;99.90
32660;DHT22;19064;47.912;12.308;2024-03-02T01:11:16;5.40;99.90
32660;DHT22;19064;47.912;12.308;2024-03-02T01:13:46;5.40;99.90
32660;DHT22;19064;47.912;12.308;2024-03-02T01:16:14;5.40;99.90
32660;DHT22;19064;47.912;12.308;2024-03-02T01:18:42;5.30;99.90
32660;DHT22;19064;47.912;12.308;2024-03-02T01:21:08;5.30;99.90
32660;DHT22;19064;47.912;12.308;2024-03-02T01:23:34;5.30;99.90
32660;DHT22;19064;47.912;12.308;2024-03-02T01:26:01;5.30;99.90
32660;DHT22;19064;47.912;12.308;2024-03-02T01:28:28;5.30;99.90
32660;DHT22;19064;47.912;12.308;2024-03-02T01:30:56;5.30;99.90
32660;DHT22;19064;47.912;12.308;2024-03-02T01:33:23;5.30;99.90
32660;DHT22;19064;47.912;12.308;2024-03-02T01:35:51;5.30;99.90
32660;DHT22;19064;47.912;12.308;2024-03-02T01:38:17;5.30;99.90
32660;DHT22;19064;47.912;12.308;2024-03-02T01:40:44;5.20;99.90
32660;DHT22;19064;47.912;12.308;2024-03-02T01:43:11;5.20;99.90
32660;DHT22;19064;47.912;12.308;2024-03-02T01:45:38;5.20;99.90
32660;DHT22;19064;47.912;12.308;2024-03-02T01:48:07;5.10;99.90
32660;DHT22;19064;47.912;12.308;2024-03-02T01:50:34;5.10;99.90
32660;DHT22;19064;47.912;12.308;2024-03-02T01:53:01;5.00;99.90
32660;DHT22;19064;47.912;12.308;2024-03-02T01:55:28;4.90;99.90
32660;DHT22;19064;47.912;12.308;2024-03-02T01:57:57;4.90;99.90
32660;DHT22;19064;47.912;12.308;2024-03-02T02:00:24;4.80;99.90
32660;DHT22;19064;47.912;12.308;2024-03-02T02:02:52;4.80;99.90
32660;DHT22;19064;47.912;12.308;2024-03-02T02:05:25;4.70;99.90
32660;DHT22;19064;47.912;12.308;2024-03-02T02:07:53;4.70;99.90
32660;DHT22;19064;47.912;12.308;2024-03-02T02:10:21;4.70;99.90
32660;DHT22;19064;47.912;12.308;2024-03-02T02:12:50;4.80;99.90
32660;DHT22;19064;47.912;12.308;2024-03-02T02:15:26;4.80;99.90
32660;DHT22;19064;47.912;12.308;2024-03-02T02:17:54;4.80;99.90
32660;DHT22;19064;47.912;12.308;2024-03-02T02:20:23;4.70;99.90
32660;DHT22;19064;47.912;12.308;2024-03-02T02:22:56;4.70;99.90
32660;DHT22;19064;47.912;12.308;2024-03-02T02:25:23;4.70;99.90
32660;DHT22;19064;47.912;12.308;2024-03-02T02:27:50;4.70;99.90
32660;DHT22;19064;47.912;12.308;2024-03-02T02:30:19;4.60;99.90
32660;DHT22;19064;47.912;12.308;2024-03-02T02:32:46;4.70;99.90
32660;DHT22;19064;47.912;12.308;2024-03-02T02:35:14;4.60;99.90
32660;DHT22;19064;47.912;12.308;2024-03-02T02:37:43;4.60;99.90
32660;DHT22;19064;47.912;12.308;2024-03-02T02:40:12;4.60;99.90
32660;DHT22;19064;47.912;12.308;2024-03-02T02:42:39;4.50;99.90
32660;DHT22;19064;47.912;12.308;2024-03-02T02:45:06;4.60;99.90
32660;DHT22;19064;47.912;12.308;2024-03-02T02:47:33;4.60;99.90
32660;DHT22;19064;47.912;12.308;2024-03-02T02:50:01;4.60;99.90
32660;DHT22;19064;47.912;12.308;2024-03-02T02:52:31;4.50;99.90
32660;DHT22;19064;47.912;12.308;2024-03-02T02:54:59;4.50;99.90
32660;DHT22;19064;47.912;12.308;2024-03-02T02:57:28;4.50;99.90
32660;DHT22;19064;47.912;12.308;2024-03-02T02:59:57;4.50;99.90
32660;DHT22;19064;47.912;12.308;2024-03-02T03:02:24;4.50;99.90
32660;DHT22;19064;47.912;12.308;2024-03-02T03:04:54;4.60;99.90
32660;DHT22;19064;47.912;12.308;2024-03-02T03:07:22;4.70;99.90
32660;DHT22;19064;47.912;12.308;2024-03-02T03:09:49;4.70;99.90
32660;DHT22;19064;47.912;12.308;2024-03-02T03:12:16;4.70;99.90
32660;DHT22;19064;47.912;12.308;2024-03-02T03:14:44;4.70;99.90
32660;DHT22;19064;47.912;12.308;2024-03-02T03:17:12;4.70;99.90
32660;DHT22;19064;47.912;12.308;2024-03-02T03:19:39;4.70;99.90
32660;DHT22;19064;47.912;12.308;2024-03-02T03:22:05;4.70;99.90
32660;DHT22;19064;47.912;12.308;2024-03-02T03:24:32;4.80;99.90
32660;DHT22;19064;47.912;12.308;2024-03-02T03:26:59;4.80;99.90
32660;DHT22;19064;47.912;12.308;2024-03-02T03:29:27;4.80;99.90
32660;DHT22;19064;47.912;12.308;2024-03-02T03:31:56;4.70;99.90
32660;DHT22;19064;47.912;12.308;2024-03-02T03:34:23;4.60;99.90
32660;DHT22;19064;47.912;12.308;2024-03-02T03:36:51;4.60;99.90
32660;DHT22;19064;47.912;12.308;2024-03-02T03:39:18;4.50;99.90
32660;DHT22;19064;47.912;12.308;2024-03-02T03:41:45;4.50;99.90
32660;DHT22;19064;47.912;12.308;2024-03-02T03:44:12;4.60;99.90
32660;DHT22;19064;47.912;12.308;2024-03-02T03:46:39;4.60;99.90
32660;DHT22;19064;47.912;12.308;2024-03-02T03:49:07;4.60;99.90
32660;DHT22;19064;47.912;12.308;2024-03-02T03:51:33;4.60;99.90
32660;DHT22;19064;47.912;12.308;2024-03-02T03:54:00;4.50;99.90
32660;DHT22;19064;47.912;12.308;2024-03-02T03:56:28;4.50;99.90
32660;DHT22;19064;47.912;12.308;2024-03-02T03:58:55;4.50;99.90
32660;DHT22;19064;47.912;12.308;2024-03-02T04:01:23;4.50;99.90
32660;DHT22;19064;47.912;12.308;2024-03-02T04:03:50;4.50;99.90
32660;DHT22;19064;47.912;12.308;2024-03-02T04:06:19;4.50;99.90
32660;DHT22;19064;47.912;12.308;2024-03-02T04:08:48;4.50;99.90
32660;DHT22;19064;47.912;12.308;2024-03-02T04:11:14;4.50;99.90
32660;DHT22;19064;47.912;12.308;2024-03-02T04:13:43;4.50;99.90
32660;DHT22;19064;47.912;12.308;2024-03-02T04:16:11;4.40;99.90
32660;DHT22;19064;47.912;12.308;2024-03-02T04:18:38;4.40;99.90
32660;DHT22;19064;47.912;12.308;2024-03-02T04:21:05;4.40;99.90
32660;DHT22;19064;47.912;12.308;2024-03-02T04:23:33;4.40;99.90
32660;DHT22;19064;47.912;12.308;2024-03-02T04:26:00;4.40;99.90
32660;DHT22;19064;47.912;12.308;2024-03-02T04:28:27;4.30;99.90
32660;DHT22;19064;47.912;12.308;2024-03-02T04:30:55;4.30;99.90
32660;DHT22;19064;47.912;12.308;2024-03-02T04:33:21;4.20;99.90
32660;DHT22;19064;47.912;12.308;2024-03-02T04:35:49;4.10;99.90
32660;DHT22;19064;47.912;12.308;2024-03-02T04:38:16;4.10;99.90
32660;DHT22;19064;47.912;12.308;2024-03-02T04:40:44;4.00;99.90
32660;DHT22;19064;47.912;12.308;2024-03-02T04:43:11;3.80;99.90
32660;DHT22;19064;47.912;12.308;2024-03-02T04:45:41;3.90;99.90
32660;DHT22;19064;47.912;12.308;2024-03-02T04:48:08;3.90;99.90
32660;DHT22;19064;47.912;12.308;2024-03-02T04:50:35;3.80;99.90
32660;DHT22;19064;47.912;12.308;2024-03-02T04:53:01;3.80;99.90
32660;DHT22;19064;47.912;12.308;2024-03-02T04:55:28;3.70;99.90
32660;DHT22;19064;47.912;12.308;2024-03-02T04:58:28;3.70;99.90
32660;DHT22;19064;47.912;12.308;2024-03-02T05:00:56;3.70;99.90
32660;DHT22;19064;47.912;12.308;2024-03-02T05:03:22;3.70;99.90
32660;DHT22;19064;47.912;12.308;2024-03-02T05:05:49;3.70;99.90
32660;DHT22;19064;47.912;12.308;2024-03-02T05:08:16;3.70;99.90
32660;DHT22;19064;47.912;12.308;2024-03-02T05:10:43;3.80;99.90
32660;DHT22;19064;47.912;12.308;2024-03-02T05:13:09;3.70;99.90
32660;DHT22;19064;47.912;12.308;2024-03-02T05:15:39;3.70;99.90
32660;DHT22;19064;47.912;12.308;2024-03-02T05:18:06;3.60;99.90
32660;DHT22;19064;47.912;12.308;2024-03-02T05:20:33;3.50;99.90
32660;DHT22;19064;47.912;12.308;2024-03-02T05:22:59;3.50;99.90
32660;DHT22;19064;47.912;12.308;2024-03-02T05:25:26;3.40;99.90
32660;DHT22;19064;47.912;12.308;2024-03-02T05:27:54;3.40;99.90
32660;DHT22;19064;47.912;12.308;2024-03-02T05:30:21;3.50;99.90
32660;DHT22;19064;47.912;12.308;2024-03-02T05:32:50;3.40;99.90
32660;DHT22;19064;47.912;12.308;2024-03-02T05:35:17;3.40;99.90
32660;DHT22;19064;47.912;12.308;2024-03-02T05:37:45;3.50;99.90
32660;DHT22;19064;47.912;12.308;2024-03-02T05:40:12;3.50;99.90
32660;DHT22;19064;47.912;12.308;2024-03-02T05:42:39;3.50;99.90
32660;DHT22;19064;47.912;12.308;2024-03-02T05:45:07;3.50;99.90
32660;DHT22;19064;47.912;12.308;2024-03-02T05:47:34;3.40;99.90
32660;DHT22;19064;47.912;12.308;2024-03-02T05:50:07;3.40;99.90
32660;DHT22;19064;47.912;12.308;2024-03-02T05:52:34;3.40;99.90
32660;DHT22;19064;47.912;12.308;2024-03-02T05:55:01;3.40;99.90
32660;DHT22;19064;47.912;12.308;2024-03-02T05:57:29;3.30;99.90
32660;DHT22;19064;47.912;12.308;2024-03-02T06:00:13;3.20;99.90
32660;DHT22;19064;47.912;12.308;2024-03-02T06:02:42;3.30;99.90
32660;DHT22;19064;47.912;12.308;2024-03-02T06:05:11;3.40;99.90
32660;DHT22;19064;47.912;12.308;2024-03-02T06:07:39;3.30;99.90
32660;DHT22;19064;47.912;12.308;2024-03-02T06:10:09;3.50;99.90
32660;DHT22;19064;47.912;12.308;2024-03-02T06:12:36;3.50;99.90
32660;DHT22;19064;47.912;12.308;2024-03-02T06:15:04;3.50;99.90
32660;DHT22;19064;47.912;12.308;2024-03-02T06:17:30;3.50;99.90
32660;DHT22;19064;47.912;12.308;2024-03-02T06:19:57;3.60;99.90
32660;DHT22;19064;47.912;12.308;2024-03-02T06:22:25;3.60;99.90
32660;DHT22;19064;47.912;12.308;2024-03-02T06:24:52;3.60;99.90
32660;DHT22;19064;47.912;12.308;2024-03-02T06:27:20;3.70;99.90
32660;DHT22;19064;47.912;12.308;2024-03-02T06:29:46;3.70;99.90
32660;DHT22;19064;47.912;12.308;2024-03-02T06:32:15;3.70;99.90
32660;DHT22;19064;47.912;12.308;2024-03-02T06:34:43;3.80;99.90
32660;DHT22;19064;47.912;12.308;2024-03-02T06:37:11;3.90;99.90
32660;DHT22;19064;47.912;12.308;2024-03-02T06:39:41;4.00;99.90
32660;DHT22;19064;47.912;12.308;2024-03-02T06:42:08;4.00;99.90
32660;DHT22;19064;47.912;12.308;2024-03-02T06:44:34;4.10;99.90
32660;DHT22;19064;47.912;12.308;2024-03-02T06:47:01;4.10;99.90
32660;DHT22;19064;47.912;12.308;2024-03-02T06:49:28;4.20;99.90
32660;DHT22;19064;47.912;12.308;2024-03-02T06:51:56;4.40;99.90
32660;DHT22;19064;47.912;12.308;2024-03-02T06:54:23;5.10;99.90
32660;DHT22;19064;47.912;12.308;2024-03-02T06:56:55;5.60;99.90
32660;DHT22;19064;47.912;12.308;2024-03-02T06:59:24;6.30;99.90
32660;DHT22;19064;47.912;12.308;2024-03-02T07:02:00;6.90;99.90
32660;DHT22;19064;47.912;12.308;2024-03-02T07:04:28;7.80;99.90
32660;DHT22;19064;47.912;12.308;2024-03-02T07:06:58;7.60;99.90
32660;DHT22;19064;47.912;12.308;2024-03-02T07:09:25;7.30;99.90
32660;DHT22;19064;47.912;12.308;2024-03-02T07:11:54;7.10;99.90
32660;DHT22;19064;47.912;12.308;2024-03-02T07:14:22;7.00;99.90
32660;DHT22;19064;47.912;12.308;2024-03-02T07:17:10;7.10;99.90
32660;DHT22;19064;47.912;12.308;2024-03-02T07:19:38;8.10;99.90
32660;DHT22;19064;47.912;12.308;2024-03-02T07:22:06;8.90;99.90
32660;DHT22;19064;47.912;12.308;2024-03-02T07:24:40;9.70;99.90
32660;DHT22;19064;47.912;12.308;2024-03-02T07:27:14;10.20;99.90
32660;DHT22;19064;47.912;12.308;2024-03-02T07:29:41;10.60;99.90
32660;DHT22;19064;47.912;12.308;2024-03-02T07:32:09;10.80;99.90
32660;DHT22;19064;47.912;12.308;2024-03-02T07:34:38;10.60;99.90
32660;DHT22;19064;47.912;12.308;2024-03-02T07:37:05;10.50;99.90
32660;DHT22;19064;47.912;12.308;2024-03-02T07:39:33;10.60;99.90
32660;DHT22;19064;47.912;12.308;2024-03-02T07:42:00;10.40;99.90
32660;DHT22;19064;47.912;12.308;2024-03-02T07:44:36;9.70;99.90
32660;DHT22;19064;47.912;12.308;2024-03-02T07:47:04;9.60;99.90
32660;DHT22;19064;47.912;12.308;2024-03-02T07:49:32;9.30;99.90
32660;DHT22;19064;47.912;12.308;2024-03-02T07:52:03;8.90;99.90
32660;DHT22;19064;47.912;12.308;2024-03-02T07:54:31;8.70;99.90
32660;DHT22;19064;47.912;12.308;2024-03-02T07:56:59;8.70;99.90
32660;DHT22;19064;47.912;12.308;2024-03-02T07:59:27;8.50;99.90
32660;DHT22;19064;47.912;12.308;2024-03-02T08:01:57;8.60;99.90
32660;DHT22;19064;47.912;12.308;2024-03-02T08:04:25;8.90;99.90
32660;DHT22;19064;47.912;12.308;2024-03-02T08:06:53;9.10;99.90
32660;DHT22;19064;47.912;12.308;2024-03-02T08:09:21;8.70;99.90
32660;DHT22;19064;47.912;12.308;2024-03-02T08:11:49;8.50;99.90
32660;DHT22;19064;47.912;12.308;2024-03-02T08:14:18;8.40;99.90
32660;DHT22;19064;47.912;12.308;2024-03-02T08:16:47;8.50;99.90
32660;DHT22;19064;47.912;12.308;2024-03-02T08:19:17;8.30;99.90
32660;DHT22;19064;47.912;12.308;2024-03-02T08:21:45;8.10;99.90
32660;DHT22;19064;47.912;12.308;2024-03-02T08:24:13;8.00;99.90
32660;DHT22;19064;47.912;12.308;2024-03-02T08:26:40;8.00;99.90
32660;DHT22;19064;47.912;12.308;2024-03-02T08:29:08;7.90;99.90
32660;DHT22;19064;47.912;12.308;2024-03-02T08:31:36;7.70;99.90
32660;DHT22;19064;47.912;12.308;2024-03-02T08:34:04;7.50;99.90
32660;DHT22;19064;47.912;12.308;2024-03-02T08:36:34;7.40;99.90
32660;DHT22;19064;47.912;12.308;2024-03-02T08:39:03;7.50;99.90
32660;DHT22;19064;47.912;12.308;2024-03-02T08:41:34;7.40;99.90
32660;DHT22;19064;47.912;12.308;2024-03-02T08:44:02;7.60;99.90
32660;DHT22;19064;47.912;12.308;2024-03-02T08:46:30;7.60;99.90
32660;DHT22;19064;47.912;12.308;2024-03-02T08:48:57;7.70;99.90
32660;DHT22;19064;47.912;12.308;2024-03-02T08:51:25;7.60;99.90
32660;DHT22;19064;47.912;12.308;2024-03-02T08:53:53;7.70;99.90
32660;DHT22;19064;47.912;12.308;2024-03-02T08:56:22;7.80;99.90
32660;DHT22;19064;47.912;12.308;2024-03-02T08:58:49;7.90;99.90
32660;DHT22;19064;47.912;12.308;2024-03-02T09:01:16;8.00;99.90
32660;DHT22;19064;47.912;12.308;2024-03-02T09:03:45;8.10;99.90
32660;DHT22;19064;47.912;12.308;2024-03-02T09:06:13;8.10;99.90
32660;DHT22;19064;47.912;12.308;2024-03-02T09:08:44;8.10;99.90
32660;DHT22;19064;47.912;12.308;2024-03-02T09:11:15;8.10;99.90
32660;DHT22;19064;47.912;12.308;2024-03-02T09:13:43;8.10;99.90
32660;DHT22;19064;47.912;12.308;2024-03-02T09:16:12;8.30;99.90
32660;DHT22;19064;47.912;12.308;2024-03-02T09:18:38;8.50;99.90
32660;DHT22;19064;47.912;12.308;2024-03-02T09:21:06;8.70;99.90
32660;DHT22;19064;47.912;12.308;2024-03-02T09:23:34;8.90;99.90
32660;DHT22;19064;47.912;12.308;2024-03-02T09:26:01;9.10;99.90
32660;DHT22;19064;47.912;12.308;2024-03-02T09:28:31;9.20;99.90
32660;DHT22;19064;47.912;12.308;2024-03-02T09:31:01;9.40;99.90
32660;DHT22;19064;47.912;12.308;2024-03-02T09:33:29;9.70;99.90
32660;DHT22;19064;47.912;12.308;2024-03-02T09:35:57;9.60;99.90
32660;DHT22;19064;47.912;12.308;2024-03-02T09:38:25;9.70;99.90
32660;DHT22;19064;47.912;12.308;2024-03-02T09:40:54;9.60;99.90
32660;DHT22;19064;47.912;12.308;2024-03-02T09:43:22;9.60;99.90
32660;DHT22;19064;47.912;12.308;2024-03-02T09:45:52;9.60;99.90
32660;DHT22;19064;47.912;12.308;2024-03-02T09:50:54;9.80;99.90
32660;DHT22;19064;47.912;12.308;2024-03-02T09:53:22;9.80;99.90
32660;DHT22;19064;47.912;12.308;2024-03-02T09:55:50;9.80;99.90
32660;DHT22;19064;47.912;12.308;2024-03-02T09:58:18;9.80;99.90
32660;DHT22;19064;47.912;12.308;2024-03-02T10:00:47;9.70;99.90
32660;DHT22;19064;47.912;12.308;2024-03-02T10:03:18;9.70;99.90
32660;DHT22;19064;47.912;12.308;2024-03-02T10:05:48;9.80;99.90
32660;DHT22;19064;47.912;12.308;2024-03-02T10:08:16;10.00;99.90
32660;DHT22;19064;47.912;12.308;2024-03-02T10:10:44;10.20;99.90
32660;DHT22;19064;47.912;12.308;2024-03-02T10:13:13;10.30;99.90
32660;DHT22;19064;47.912;12.308;2024-03-02T10:15:41;10.30;99.90
32660;DHT22;19064;47.912;12.308;2024-03-02T10:18:13;10.40;99.90
32660;DHT22;19064;47.912;12.308;2024-03-02T10:20:44;10.40;99.90
32660;DHT22;19064;47.912;12.308;2024-03-02T10:23:13;10.40;99.90
32660;DHT22;19064;47.912;12.308;2024-03-02T10:25:45;10.40;99.90
32660;DHT22;19064;47.912;12.308;2024-03-02T10:28:15;10.40;99.90
32660;DHT22;19064;47.912;12.308;2024-03-02T10:30:43;10.50;99.90
32660;DHT22;19064;47.912;12.308;2024-03-02T10:33:09;10.70;99.90
32660;DHT22;19064;47.912;12.308;2024-03-02T10:35:40;10.80;99.90
32660;DHT22;19064;47.912;12.308;2024-03-02T10:38:13;10.80;99.90
32660;DHT22;19064;47.912;12.308;2024-03-02T10:40:41;10.80;99.90
32660;DHT22;19064;47.912;12.308;2024-03-02T10:43:11;10.90;99.90
32660;DHT22;19064;47.912;12.308;2024-03-02T10:45:42;10.80;99.90
32660;DHT22;19064;47.912;12.308;2024-03-02T10:48:11;10.80;99.90
32660;DHT22;19064;47.912;12.308;2024-03-02T10:50:38;10.80;99.90
32660;DHT22;19064;47.912;12.308;2024-03-02T10:53:05;10.80;99.90
32660;DHT22;19064;47.912;12.308;2024-03-02T10:55:34;10.70;99.90
32660;DHT22;19064;47.912;12.308;2024-03-02T10:58:04;10.80;99.90
32660;DHT22;19064;47.912;12.308;2024-03-02T11:00:34;10.80;99.90
32660;DHT22;19064;47.912;12.308;2024-03-02T11:03:05;10.90;99.90
32660;DHT22;19064;47.912;12.308;2024-03-02T11:05:39;11.10;99.90
32660;DHT22;19064;47.912;12.308;2024-03-02T11:08:16;11.10;99.90
32660;DHT22;19064;47.912;12.308;2024-03-02T11:10:54;11.30;99.90
32660;DHT22;19064;47.912;12.308;2024-03-02T11:13:46;11.30;99.90
32660;DHT22;19064;47.912;12.308;2024-03-02T11:16:25;11.20;99.90
32660;DHT22;19064;47.912;12.308;2024-03-02T11:19:00;11.30;99.90
32660;DHT22;19064;47.912;12.308;2024-03-02T11:21:29;11.40;99.90
32660;DHT22;19064;47.912;12.308;2024-03-02T11:23:59;11.40;99.90
32660;DHT22;19064;47.912;12.308;2024-03-02T11:26:38;11.50;99.90
32660;DHT22;19064;47.912;12.308;2024-03-02T11:29:07;11.50;99.90
32660;DHT22;19064;47.912;12.308;2024-03-02T11:32:01;11.50;99.90
32660;DHT22;19064;47.912;12.308;2024-03-02T11:34:30;11.50;99.90
32660;DHT22;19064;47.912;12.308;2024-03-02T11:36:58;11.50;99.90
32660;DHT22;19064;47.912;12.308;2024-03-02T11:39:26;11.50;99.90
32660;DHT22;19064;47.912;12.308;2024-03-02T11:42:01;11.40;99.90
32660;DHT22;19064;47.912;12.308;2024-03-02T11:44:29;11.50;99.90
32660;DHT22;19064;47.912;12.308;2024-03-02T11:47:02;11.50;99.90
32660;DHT22;19064;47.912;12.308;2024-03-02T11:49:38;11.50;99.90
32660;DHT22;19064;47.912;12.308;2024-03-02T11:52:09;11.60;99.90
32660;DHT22;19064;47.912;12.308;2024-03-02T11:54:41;11.60;99.90
32660;DHT22;19064;47.912;12.308;2024-03-02T11:57:18;11.60;99.90
32660;DHT22;19064;47.912;12.308;2024-03-02T11:59:47;11.50;99.90
32660;DHT22;19064;47.912;12.308;2024-03-02T12:02:17;11.50;99.90
32660;DHT22;19064;47.912;12.308;2024-03-02T12:04:46;11.50;99.90
32660;DHT22;19064;47.912;12.308;2024-03-02T12:07:19;11.50;99.90
32660;DHT22;19064;47.912;12.308;2024-03-02T12:10:00;11.40;99.90
32660;DHT22;19064;47.912;12.308;2024-03-02T12:12:29;11.50;99.90
32660;DHT22;19064;47.912;12.308;2024-03-02T12:14:57;11.50;99.90
32660;DHT22;19064;47.912;12.308;2024-03-02T12:17:27;11.50;99.90
32660;DHT22;19064;47.912;12.308;2024-03-02T12:20:05;11.50;99.90
32660;DHT22;19064;47.912;12.308;2024-03-02T12:22:33;11.40;99.90
32660;DHT22;19064;47.912;12.308;2024-03-02T12:25:02;11.50;99.90
32660;DHT22;19064;47.912;12.308;2024-03-02T12:27:32;11.50;99.90
32660;DHT22;19064;47.912;12.308;2024-03-02T12:30:00;11.50;99.90
32660;DHT22;19064;47.912;12.308;2024-03-02T12:32:30;11.60;99.90
32660;DHT22;19064;47.912;12.308;2024-03-02T12:34:59;11.60;99.90
32660;DHT22;19064;47.912;12.308;2024-03-02T12:37:30;11.60;99.90
32660;DHT22;19064;47.912;12.308;2024-03-02T12:39:58;11.70;99.90
32660;DHT22;19064;47.912;12.308;2024-03-02T12:42:26;11.70;99.90
32660;DHT22;19064;47.912;12.308;2024-03-02T12:44:55;11.80;99.90
32660;DHT22;19064;47.912;12.308;2024-03-02T12:47:24;11.80;99.90
32660;DHT22;19064;47.912;12.308;2024-03-02T12:49:53;11.80;99.90
32660;DHT22;19064;47.912;12.308;2024-03-02T12:52:21;11.90;99.90
32660;DHT22;19064;47.912;12.308;2024-03-02T12:54:50;11.80;99.90
32660;DHT22;19064;47.912;12.308;2024-03-02T12:57:19;11.90;99.90
32660;DHT22;19064;47.912;12.308;2024-03-02T12:59:47;11.90;99.90
32660;DHT22;19064;47.912;12.308;2024-03-02T13:02:30;11.90;99.90
32660;DHT22;19064;47.912;12.308;2024-03-02T13:04:58;11.90;99.90
32660;DHT22;19064;47.912;12.308;2024-03-02T13:07:27;11.80;99.90
32660;DHT22;19064;47.912;12.308;2024-03-02T13:09:56;11.80;99.90
32660;DHT22;19064;47.912;12.308;2024-03-02T13:12:26;11.80;99.90
32660;DHT22;19064;47.912;12.308;2024-03-02T13:14:54;11.90;99.90
32660;DHT22;19064;47.912;12.308;2024-03-02T13:17:23;12.00;99.90
32660;DHT22;19064;47.912;12.308;2024-03-02T13:19:56;12.00;99.90
32660;DHT22;19064;47.912;12.308;2024-03-02T13:22:24;12.00;99.90
32660;DHT22;19064;47.912;12.308;2024-03-02T13:24:53;12.00;99.90
32660;DHT22;19064;47.912;12.308;2024-03-02T13:27:21;12.10;99.90
32660;DHT22;19064;47.912;12.308;2024-03-02T13:29:50;12.20;99.90
32660;DHT22;19064;47.912;12.308;2024-03-02T13:32:18;12.10;99.90
32660;DHT22;19064;47.912;12.308;2024-03-02T13:34:56;12.10;99.90
32660;DHT22;19064;47.912;12.308;2024-03-02T13:37:24;12.10;99.90
32660;DHT22;19064;47.912;12.308;2024-03-02T13:39:52;12.00;99.90
32660;DHT22;19064;47.912;12.308;2024-03-02T13:42:20;12.10;99.90
32660;DHT22;19064;47.912;12.308;2024-03-02T13:44:48;12.10;99.90
32660;DHT22;19064;47.912;12.308;2024-03-02T13:47:17;12.00;99.90
32660;DHT22;19064;47.912;12.308;2024-03-02T13:49:44;12.10;99.90
32660;DHT22;19064;47.912;12.308;2024-03-02T13:52:15;12.00;99.90
32660;DHT22;19064;47.912;12.308;2024-03-02T13:54:44;12.10;99.90
32660;DHT22;19064;47.912;12.308;2024-03-02T13:57:13;12.10;99.90
32660;DHT22;19064;47.912;12.308;2024-03-02T13:59:42;12.10;99.90
32660;DHT22;19064;47.912;12.308;2024-03-02T14:02:11;12.10;99.90
32660;DHT22;19064;47.912;12.308;2024-03-02T14:04:39;12.10;99.90
32660;DHT22;19064;47.912;12.308;2024-03-02T14:07:08;12.10;99.90
32660;DHT22;19064;47.912;12.308;2024-03-02T14:09:45;12.10;99.90
32660;DHT22;19064;47.912;12.308;2024-03-02T14:12:16;12.20;99.90
32660;DHT22;19064;47.912;12.308;2024-03-02T14:14:47;12.20;99.90
32660;DHT22;19064;47.912;12.308;2024-03-02T14:17:23;12.10;99.90
32660;DHT22;19064;47.912;12.308;2024-03-02T14:19:53;12.10;99.90
32660;DHT22;19064;47.912;12.308;2024-03-02T14:22:25;12.10;99.90
32660;DHT22;19064;47.912;12.308;2024-03-02T14:24:59;12.10;99.90
32660;DHT22;19064;47.912;12.308;2024-03-02T14:27:27;12.10;99.90
32660;DHT22;19064;47.912;12.308;2024-03-02T14:29:55;12.20;99.90
32660;DHT22;19064;47.912;12.308;2024-03-02T14:32:23;12.10;99.90
32660;DHT22;19064;47.912;12.308;2024-03-02T14:34:51;12.10;99.90
32660;DHT22;19064;47.912;12.308;2024-03-02T14:37:19;12.10;99.90
32660;DHT22;19064;47.912;12.308;2024-03-02T14:39:48;12.00;99.90
32660;DHT22;19064;47.912;12.308;2024-03-02T14:42:18;12.10;99.90
32660;DHT22;19064;47.912;12.308;2024-03-02T14:44:46;12.10;99.90
32660;DHT22;19064;47.912;12.308;2024-03-02T14:47:15;12.20;99.90
32660;DHT22;19064;47.912;12.308;2024-03-02T14:49:52;12.20;99.90
32660;DHT22;19064;47.912;12.308;2024-03-02T14:52:20;12.10;99.90
32660;DHT22;19064;47.912;12.308;2024-03-02T14:54:48;12.00;99.90
32660;DHT22;19064;47.912;12.308;2024-03-02T14:57:18;12.00;99.90
32660;DHT22;19064;47.912;12.308;2024-03-02T14:59:47;11.90;99.90
32660;DHT22;19064;47.912;12.308;2024-03-02T15:02:14;11.90;99.90
32660;DHT22;19064;47.912;12.308;2024-03-02T15:04:42;11.90;99.90
32660;DHT22;19064;47.912;12.308;2024-03-02T15:07:12;11.90;99.90
32660;DHT22;19064;47.912;12.308;2024-03-02T15:09:40;11.80;99.90
32660;DHT22;19064;47.912;12.308;2024-03-02T15:12:09;11.80;99.90
32660;DHT22;19064;47.912;12.308;2024-03-02T15:14:47;11.80;99.90
32660;DHT22;19064;47.912;12.308;2024-03-02T15:17:16;11.80;99.90
32660;DHT22;19064;47.912;12.308;2024-03-02T15:19:44;11.80;99.90
32660;DHT22;19064;47.912;12.308;2024-03-02T15:22:12;11.70;99.90
32660;DHT22;19064;47.912;12.308;2024-03-02T15:24:41;11.70;99.90
32660;DHT22;19064;47.912;12.308;2024-03-02T15:27:08;11.70;99.90
32660;DHT22;19064;47.912;12.308;2024-03-02T15:29:36;11.60;99.90
32660;DHT22;19064;47.912;12.308;2024-03-02T15:32:09;11.60;99.90
32660;DHT22;19064;47.912;12.308;2024-03-02T15:34:37;11.60;99.90
32660;DHT22;19064;47.912;12.308;2024-03-02T15:37:06;11.60;99.90
32660;DHT22;19064;47.912;12.308;2024-03-02T15:39:34;11.60;99.90